There are no active watches, warnings or advisories for Caledonia (Vermont).

Nearby METAR Reports

 

KCDA - Lyndonville, Vermont, USA
Distance from station: ENE 11mi, 18km
Updated: Tue, 23-May-2017 10:15am EDT
Partly cloudy
Partly cloudy
 Wind from calm
Wind: Calm
Temperature: 52°F , 11°C
Dew Point: 50°F , 10°C
Humidity: 94%
Barometer: 29.93 inHg , 1013.5 hPa
Clouds: Partly cloudy
Visibility: 10 miles , 16 km
Cloud details: Partly cloudy 2600 ft
Partly cloudy 3100 ft
2017/05/23 14:15 KCDA 231415Z AUTO 00000KT 10SM SCT026 SCT031 11/10 A2993 RMK AO2 T01070104
K1V4 - St. Johnsbury, Vermont, USA
Distance from station: ESE 12mi, 19km
Updated: Tue, 23-May-2017 9:54am EDT

 
Temperature: 57°F , 14°C
Dew Point: 48°F , 9°C
Humidity: 72%
Barometer: 29.90 inHg , 1012.5 hPa
2017/05/23 13:54 K1V4 231354Z AUTO 14/09 A2990 RMK AO1 SLP123 T01440089
 
KMVL - Morrisville, Vermont, USA
Distance from station: W 20mi, 31km
Updated: Tue, 23-May-2017 9:54am EDT
Clear
Clear
 Wind from S
Wind: S 6 mph , 9 km/h
Temperature: 57°F , 14°C
Dew Point: 45°F , 7°C
Humidity: 63%
Barometer: 29.92 inHg , 1013.2 hPa
Clouds: Clear
Visibility: 10 miles , 16 km
2017/05/23 13:54 KMVL 231354Z AUTO 19005KT 10SM CLR 14/07 A2992 RMK AO2 SLP135 T01390072
KEFK - Newport State, Vermont, USA
Distance from station: N 26mi, 42km
Updated: Tue, 23-May-2017 10:15am EDT
Partly cloudy
Partly cloudy
 Wind from W
Wind: W 12 mph , 19 km/h
Temperature: 57°F , 14°C
Dew Point: 46°F , 8°C
Humidity: 67%
Barometer: 29.91 inHg , 1012.9 hPa
Clouds: Partly cloudy
Visibility: 10 miles , 16 km
Cloud details: Partly cloudy 3300 ft
2017/05/23 14:15 KEFK 231415Z AUTO 26010KT 10SM SCT033 14/08 A2991 RMK AO2 T01420076
 
KMPV - Montpelier/Barre, Vermont, USA
Distance from station: SW 27mi, 44km
Updated: Tue, 23-May-2017 9:51am EDT
Clear
Clear
 Wind from NNW
Wind: NNW 5 mph , 7 km/h
Temperature: 55°F , 13°C
Dew Point: 46°F , 8°C
Humidity: 72%
Barometer: 29.96 inHg , 1014.6 hPa
Clouds: Clear
Visibility: 10 miles , 16 km
2017/05/23 13:51 KMPV 231351Z AUTO 33004KT 10SM CLR 13/08 A2996 RMK AO2 SLP148 T01330083
KHIE - Whitefield, New Hampshire, USA
Distance from station: ESE 34mi, 55km
Updated: Tue, 23-May-2017 9:52am EDT
Mostly cloudy
Mostly cloudy
 Wind from W
Wind: W 6 mph , 9 km/h
Temperature: 57°F , 14°C
Dew Point: 45°F , 7°C
Humidity: 63%
Barometer: 29.92 inHg , 1013.2 hPa
Clouds: Mostly cloudy
Visibility: 10 miles , 16 km
Cloud details: Few Clouds 2700 ft
Mostly cloudy 3500 ft
Mostly cloudy 4500 ft
2017/05/23 13:52 KHIE 231352Z AUTO 28005KT 10SM FEW027 BKN035 BKN045 14/07 A2992 RMK AO2 SLP134 T01390072
 
KBTV - Burlington, Vermont, USA
Distance from station: W 46mi, 74km
Updated: Tue, 23-May-2017 9:54am EDT
Partly cloudy
Partly cloudy
 Wind from NNW
Wind: NNW 5 mph , 7 km/h
Temperature: 61°F , 16°C
Dew Point: 45°F , 7°C
Humidity: 55%
Barometer: 29.91 inHg , 1012.9 hPa
Clouds: Partly cloudy
Visibility: 10 miles , 16 km
Cloud details: Few Clouds 4000 ft
Partly cloudy 20000 ft
Partly cloudy 25000 ft
2017/05/23 13:54 KBTV 231354Z 33004KT 10SM FEW040 SCT200 SCT250 16/07 A2991 RMK AO2 SLP131 T01610067
CWFQ - Frelighsburg, Quebec, Canada
Distance from station: NW 47mi, 75km
Updated: Tue, 23-May-2017 10:00am EDT

 Wind from W
Wind: W 5 mph , 7 km/h
Temperature: 57°F , 14°C
Dew Point: 46°F , 8°C
Humidity: 67%
2017/05/23 14:00 CWFQ 231400Z AUTO 26004KT 14/08 RMK AO1 SLP123 T01420084 58005
 
KMWN - Mount Washington, New Hampshire, USA
Distance from station: ESE 49mi, 79km
Updated: Tue, 23-May-2017 9:48am EDT
Fog, Mostly cloudy
Fog, Mostly cloudy
 Wind from WNW
Wind: WNW 40 mph , 65 km/h, Gust: 52 mph , 83 km/h
Temperature: 32°F , 0°C
Wind Chill: 16°F , -9°C
Dew Point: 32°F , 0°C
Humidity: 100%
Summary: Fog
Clouds: Mostly cloudy
Visibility: 0 miles , 0 km
Cloud details: Mostly cloudy 0 ft
Mostly cloudy 4000 ft
2017/05/23 13:48 KMWN 231348Z 30035G45KT 0SM FG BKN000 BKN040 00/00 RMK FG BKN000 FG INTMT
KBML - Berlin, New Hampshire, USA
Distance from station: E 51mi, 83km
Updated: Tue, 23-May-2017 9:52am EDT
Mostly cloudy
Mostly cloudy
 Wind from varies
Wind: varies 6 mph , 9 km/h
Temperature: 57°F , 14°C
Dew Point: 45°F , 7°C
Humidity: 63%
Barometer: 29.91 inHg , 1012.9 hPa
Clouds: Mostly cloudy
Visibility: 10 miles , 16 km
Cloud details: Few Clouds 2600 ft
Mostly cloudy 4200 ft
2017/05/23 13:52 KBML 231352Z AUTO VRB05KT 10SM FEW026 BKN042 14/07 A2991 RMK AO2 SLP131 T01440072
 
KFSO - Highgate, Vermont, USA
Distance from station: NW 52mi, 84km
Updated: Tue, 23-May-2017 10:15am EDT
Clear
Clear
 Wind from WSW
Wind: WSW 6 mph , 9 km/h
Temperature: 59°F , 15°C
Dew Point: 46°F , 8°C
Humidity: 63%
Barometer: 29.91 inHg , 1012.9 hPa
Clouds: Clear
Visibility: 10 miles , 16 km
2017/05/23 14:15 KFSO 231415Z AUTO 25005KT 10SM CLR 15/08 A2991 RMK AO2 T01540076
CWTT - Lac Memphremagog, Quebec, Canada
Distance from station: N 53mi, 85km
Updated: Tue, 23-May-2017 7:00am EDT
NOT Current

 Wind from SW
Wind: SW 6 mph , 9 km/h
Temperature: 52°F , 11°C
Dew Point: 48°F , 9°C
Humidity: 88%
2017/05/23 11:00 CWTT 231100Z AUTO 22005KT 11/09 RMK AO1 T01050086
 
K1P1 - Plymouth, New Hampshire, USA
Distance from station: SSE 55mi, 88km
Updated: Tue, 23-May-2017 10:35am EDT
Clear
Clear
 Wind from W
Wind: W 9 mph , 15 km/h
Temperature: 61°F , 16°C
Dew Point: 45°F , 7°C
Humidity: 55%
Barometer: 29.91 inHg , 1012.9 hPa
Clouds: Clear
Visibility: 10 miles , 16 km
2017/05/23 14:35 K1P1 231435Z AUTO 27008KT 240V300 10SM CLR 16/07 A2991 RMK AO2 T01640068
KLEB - Lebanon, New Hampshire, USA
Distance from station: S 60mi, 97km
Updated: Tue, 23-May-2017 9:53am EDT
Clear
Clear
 Wind from calm
Wind: Calm
Temperature: 61°F , 16°C
Dew Point: 48°F , 9°C
Humidity: 63%
Barometer: 29.92 inHg , 1013.2 hPa
Clouds: Clear
Visibility: 10 miles , 16 km
2017/05/23 13:53 KLEB 231353Z 00000KT 10SM CLR 16/09 A2992 RMK AO2 SLP130 T01560094
 
KPBG - Plattsburgh Afb, New York, USA
Distance from station: W 62mi, 100km
Updated: Tue, 23-May-2017 9:53am EDT
Light rain, Clear
Light rain, Clear
 Wind from ESE
Wind: ESE 10 mph , 17 km/h
Temperature: 57°F , 14°C
Dew Point: 46°F , 8°C
Humidity: 67%
Barometer: 29.90 inHg , 1012.5 hPa
Summary: Light rain
Clouds: Clear
Visibility: 10 miles , 16 km
2017/05/23 13:53 KPBG 231353Z AUTO 12009KT 10SM -RA CLR 14/08 A2990 RMK AO2 RAB47 SLP127 P0000 T01440083
CWQH - Lennoxville, Quebec, Canada
Distance from station: NNE 63mi, 101km
Updated: Tue, 23-May-2017 10:00am EDT

 Wind from WSW
Wind: WSW 12 mph , 19 km/h, Gust: 18 mph , 30 km/h
Temperature: 57°F , 14°C
Dew Point: 46°F , 8°C
Humidity: 67%
2017/05/23 14:00 CWQH 231400Z AUTO 25010G16KT 14/08 RMK AO1 PK WND 25017/1348 T01390082
 
CMGB - Granby, Quebec, Canada
Distance from station: NNW 65mi, 105km
Updated: Tue, 23-May-2017 10:30am EDT

 Wind from SW
Wind: SW 7 mph , 11 km/h
Temperature: 59°F , 15°C
Dew Point: 46°F , 8°C
Humidity: 63%
2017/05/23 14:30 CMGB 231430Z AUTO 23006KT 15/08 RMK AO1 SLP119 T01490077 58004
CYSC - Sherbrooke, Quebec, Canada
Distance from station: NNE 69mi, 112km
Updated: Tue, 23-May-2017 10:00am EDT
Mostly cloudy
Mostly cloudy
 Wind from WSW
Wind: WSW 9 mph , 15 km/h
Temperature: 57°F , 14°C
Dew Point: 48°F , 9°C
Humidity: 72%
Barometer: 29.88 inHg , 1011.9 hPa
Clouds: Mostly cloudy
Visibility: 9 miles , 14 km
Cloud details: Mostly cloudy 2800 ft
Mostly cloudy 3900 ft
2017/05/23 14:00 CYSC 231400Z AUTO 24008KT 9SM BKN028 BKN039 14/09 A2988 RMK SLP123 DENSITY ALT 900FT
 
KIZG - Fryeburg, Maine, USA
Distance from station: ESE 72mi, 117km
Updated: Tue, 23-May-2017 9:54am EDT
Few Clouds
Few Clouds
 Wind from NE
Wind: NE 6 mph , 9 km/h
Temperature: 57°F , 14°C
Dew Point: 52°F , 11°C
Humidity: 82%
Barometer: 29.91 inHg , 1012.9 hPa
Clouds: Few Clouds
Visibility: 10 miles , 16 km
Cloud details: Few Clouds 800 ft
2017/05/23 13:54 KIZG 231354Z AUTO 04005KT 10SM FEW008 14/11 A2991 RMK AO2 SLP131 T01390106